createdAt,value
2019-01-21T00:00:33.003Z,83.05
2019-01-21T00:01:36.994Z,83.08
2019-01-21T00:02:41.027Z,83.08
2019-01-21T00:03:45.131Z,82.93
2019-01-21T00:04:49.223Z,82.75
2019-01-21T00:05:53.343Z,82.71
2019-01-21T00:06:57.469Z,82.80
2019-01-21T00:08:01.644Z,82.82
2019-01-21T00:09:05.698Z,82.84
2019-01-21T00:10:09.754Z,82.83
2019-01-21T00:11:13.843Z,82.80
2019-01-21T00:12:17.980Z,82.80
2019-01-21T00:13:22.052Z,82.78
2019-01-21T00:14:26.326Z,82.69
2019-01-21T00:15:30.529Z,82.75
2019-01-21T00:16:34.494Z,82.79
2019-01-21T00:17:38.604Z,82.83
2019-01-21T00:18:42.795Z,82.86
2019-01-21T00:19:46.810Z,82.89
2019-01-21T00:20:50.940Z,82.31
2019-01-21T00:21:55.128Z,82.34
2019-01-21T00:22:59.145Z,82.53
2019-01-21T00:24:03.226Z,82.49
2019-01-21T00:25:07.253Z,82.51
2019-01-21T00:26:11.435Z,82.55
2019-01-21T00:27:16.431Z,82.80
2019-01-21T00:28:20.260Z,82.90
2019-01-21T00:29:24.291Z,83.05
2019-01-21T00:30:28.369Z,82.89
2019-01-21T00:31:32.455Z,82.83
2019-01-21T00:32:36.719Z,82.93
2019-01-21T00:33:40.711Z,82.80
2019-01-21T00:34:44.942Z,82.84
2019-01-21T00:35:48.940Z,82.78
2019-01-21T00:36:53.044Z,82.72
2019-01-21T00:37:57.164Z,82.80
2019-01-21T00:39:01.215Z,82.86
2019-01-21T00:40:05.417Z,82.88
2019-01-21T00:41:09.559Z,82.65
2019-01-21T00:42:13.581Z,82.60
2019-01-21T00:43:17.726Z,82.54
2019-01-21T00:44:21.808Z,82.59
2019-01-21T00:45:25.920Z,82.54
2019-01-21T00:46:30.063Z,82.56
2019-01-21T00:47:34.101Z,82.56
2019-01-21T00:48:38.187Z,82.28
2019-01-21T00:49:42.373Z,82.05
2019-01-21T00:50:46.362Z,82.17
2019-01-21T00:51:50.443Z,82.36
2019-01-21T00:52:54.511Z,82.50
2019-01-21T00:53:59.586Z,82.78
2019-01-21T00:55:03.239Z,83.02
2019-01-21T00:56:07.278Z,83.13
2019-01-21T00:57:12.262Z,83.25
2019-01-21T00:58:15.926Z,83.31
2019-01-21T00:59:20.028Z,83.32
2019-01-21T01:00:24.993Z,83.22
2019-01-21T01:01:28.786Z,83.29
2019-01-21T01:02:33.674Z,83.29
2019-01-21T01:03:37.366Z,83.39
2019-01-21T01:04:42.433Z,83.46
2019-01-21T01:05:46.106Z,83.57
2019-01-21T01:06:50.180Z,83.64
2019-01-21T01:07:54.250Z,83.67
2019-01-21T01:08:59.195Z,83.92
2019-01-21T01:10:02.846Z,84.00
2019-01-21T01:11:06.979Z,84.02
2019-01-21T01:12:11.038Z,84.06
2019-01-21T01:13:15.174Z,84.03
2019-01-21T01:14:19.294Z,83.86
2019-01-21T01:15:23.249Z,83.77
2019-01-21T01:16:27.407Z,83.79
2019-01-21T01:17:37.167Z,83.55
2019-01-21T01:18:35.624Z,83.48
2019-01-21T01:19:39.727Z,83.50
2019-01-21T01:20:43.913Z,83.20
2019-01-21T01:21:47.911Z,83.17
2019-01-21T01:22:52.017Z,82.92
2019-01-21T01:23:56.095Z,82.95
2019-01-21T01:25:00.239Z,82.97
2019-01-21T01:26:04.209Z,82.71
2019-01-21T01:27:08.301Z,82.16
2019-01-21T01:28:12.401Z,82.37
2019-01-21T01:29:17.477Z,82.62
2019-01-21T01:30:21.120Z,82.80
2019-01-21T01:31:25.181Z,82.75
2019-01-21T01:32:29.211Z,82.68
2019-01-21T01:33:33.364Z,82.74
2019-01-21T01:34:37.420Z,82.77
2019-01-21T01:35:41.481Z,82.84
2019-01-21T01:36:45.553Z,82.79
2019-01-21T01:37:49.629Z,82.76
2019-01-21T01:38:53.704Z,82.46
2019-01-21T01:39:57.765Z,82.55
2019-01-21T01:41:01.901Z,82.50
2019-01-21T01:42:05.944Z,82.50
2019-01-21T01:43:10.076Z,82.38
2019-01-21T01:44:14.148Z,82.14
2019-01-21T01:45:18.253Z,82.31
2019-01-21T01:46:23.214Z,82.08
2019-01-21T01:47:26.967Z,82.19
2019-01-21T01:48:31.116Z,82.17
2019-01-21T01:49:35.231Z,82.01
2019-01-21T01:50:39.378Z,82.25
2019-01-21T01:51:43.480Z,82.35
2019-01-21T01:52:47.556Z,82.34
2019-01-21T01:53:51.708Z,82.17
2019-01-21T01:54:55.779Z,82.25
2019-01-21T01:55:59.840Z,82.37
2019-01-21T01:57:04.948Z,82.33
2019-01-21T01:58:08.699Z,82.36
2019-01-21T01:59:12.711Z,82.43
2019-01-21T02:00:16.915Z,82.32
2019-01-21T02:01:20.948Z,82.18
2019-01-21T02:02:25.198Z,82.21
2019-01-21T02:03:29.114Z,82.33
2019-01-21T02:04:34.088Z,82.22
2019-01-21T02:05:37.834Z,82.35
2019-01-21T02:06:42.808Z,82.28
2019-01-21T02:07:46.582Z,82.18
2019-01-21T02:08:50.689Z,82.32
2019-01-21T02:09:54.697Z,82.36
2019-01-21T02:10:58.803Z,82.44
2019-01-21T02:12:02.961Z,82.35
2019-01-21T02:13:07.075Z,82.38
2019-01-21T02:14:11.095Z,82.31
2019-01-21T02:15:15.128Z,82.38
2019-01-21T02:16:19.233Z,82.30
2019-01-21T02:17:23.430Z,82.28
2019-01-21T02:18:27.486Z,82.29
2019-01-21T02:19:31.496Z,82.31
2019-01-21T02:20:35.615Z,82.29
2019-01-21T02:21:40.603Z,82.36
2019-01-21T02:22:44.421Z,82.29
2019-01-21T02:23:48.375Z,82.11
2019-01-21T02:24:52.432Z,81.90
2019-01-21T02:25:56.448Z,81.84
2019-01-21T02:27:00.532Z,81.94
2019-01-21T02:28:04.713Z,81.75
2019-01-21T02:29:08.708Z,81.72
2019-01-21T02:30:12.859Z,81.91
2019-01-21T02:31:16.840Z,81.88
2019-01-21T02:32:21.004Z,82.06
2019-01-21T02:33:25.100Z,82.10
2019-01-21T02:34:29.106Z,82.11
2019-01-21T02:35:33.268Z,81.93
2019-01-21T02:36:37.337Z,82.06
2019-01-21T02:37:41.529Z,82.03
2019-01-21T02:38:45.626Z,82.04
2019-01-21T02:39:49.631Z,81.99
2019-01-21T02:40:53.768Z,81.81
2019-01-21T02:41:57.791Z,81.89
2019-01-21T02:43:01.942Z,81.94
2019-01-21T02:44:06.050Z,82.00
2019-01-21T02:45:10.160Z,82.08
2019-01-21T02:46:14.167Z,82.05
2019-01-21T02:47:18.191Z,82.00
2019-01-21T02:48:22.256Z,81.96
2019-01-21T02:49:26.474Z,81.92
2019-01-21T02:50:30.488Z,81.97
2019-01-21T02:51:34.602Z,82.12
2019-01-21T02:52:38.788Z,82.12
2019-01-21T02:53:42.898Z,81.94
2019-01-21T02:54:47.827Z,81.85
2019-01-21T02:55:51.548Z,81.89
2019-01-21T02:56:55.601Z,82.06
2019-01-21T02:58:00.554Z,82.24
2019-01-21T02:59:04.212Z,82.40
2019-01-21T03:00:08.288Z,82.27
2019-01-21T03:01:12.357Z,82.03
2019-01-21T03:02:16.479Z,82.02
2019-01-21T03:03:20.499Z,82.24
2019-01-21T03:04:24.722Z,82.34
2019-01-21T03:05:28.845Z,82.48
2019-01-21T03:06:32.939Z,82.55
2019-01-21T03:07:37.139Z,82.53
2019-01-21T03:08:42.029Z,82.45
2019-01-21T03:09:45.703Z,82.24
2019-01-21T03:10:49.837Z,82.29
2019-01-21T03:11:53.973Z,82.39
2019-01-21T03:12:58.108Z,82.31
2019-01-21T03:14:03.006Z,82.30
2019-01-21T03:15:07.653Z,82.24
2019-01-21T03:16:11.351Z,82.26
2019-01-21T03:17:15.340Z,81.93
2019-01-21T03:18:19.457Z,81.94
2019-01-21T03:19:23.677Z,82.06
2019-01-21T03:20:27.782Z,82.14
2019-01-21T03:21:31.801Z,82.13
2019-01-21T03:22:35.942Z,81.93
2019-01-21T03:23:40.109Z,81.80
2019-01-21T03:24:44.199Z,81.85
2019-01-21T03:25:49.145Z,81.97
2019-01-21T03:26:52.917Z,81.89
2019-01-21T03:27:56.922Z,81.99
2019-01-21T03:29:00.978Z,81.94
2019-01-21T03:30:05.201Z,82.01
2019-01-21T03:31:09.352Z,81.98
2019-01-21T03:32:13.448Z,82.03
2019-01-21T03:33:17.604Z,82.09
2019-01-21T03:34:21.582Z,82.07
2019-01-21T03:35:25.647Z,82.04
2019-01-21T03:36:29.721Z,81.68
2019-01-21T03:37:33.835Z,81.15
2019-01-21T03:38:38.053Z,80.85
2019-01-21T03:39:42.131Z,81.20
2019-01-21T03:40:46.257Z,81.41
2019-01-21T03:41:50.345Z,81.38
2019-01-21T03:42:54.451Z,81.58
2019-01-21T03:43:58.576Z,81.41
2019-01-21T03:45:02.677Z,81.51
2019-01-21T03:46:07.647Z,81.69
2019-01-21T03:47:11.357Z,81.83
2019-01-21T03:48:16.721Z,81.50
2019-01-21T03:49:19.589Z,81.67
2019-01-21T03:50:23.721Z,81.71
2019-01-21T03:51:28.640Z,81.78
2019-01-21T03:52:32.388Z,81.83
2019-01-21T03:53:36.393Z,81.90
2019-01-21T03:54:40.570Z,81.90
2019-01-21T03:55:44.562Z,81.81
2019-01-21T03:56:48.627Z,81.91
2019-01-21T03:57:52.663Z,81.97
2019-01-21T03:58:56.724Z,81.96
2019-01-21T04:00:00.881Z,82.01
2019-01-21T04:01:05.056Z,81.93
2019-01-21T04:02:09.140Z,81.92
2019-01-21T04:03:13.200Z,81.42
2019-01-21T04:04:17.355Z,81.37
2019-01-21T04:05:21.432Z,81.30
2019-01-21T04:06:25.533Z,81.28
2019-01-21T04:07:29.671Z,81.21
2019-01-21T04:08:33.788Z,81.26
2019-01-21T04:09:37.905Z,81.47
2019-01-21T04:10:42.019Z,81.57
2019-01-21T04:11:45.970Z,81.72
2019-01-21T04:12:50.124Z,81.66
2019-01-21T04:13:54.124Z,81.71
2019-01-21T04:14:58.194Z,81.78
2019-01-21T04:16:02.378Z,81.72
2019-01-21T04:17:06.427Z,81.67
2019-01-21T04:18:10.537Z,81.72
2019-01-21T04:19:14.690Z,81.75
2019-01-21T04:20:18.745Z,81.79
2019-01-21T04:21:22.850Z,81.81
2019-01-21T04:22:26.973Z,81.82
2019-01-21T04:23:31.079Z,81.80
2019-01-21T04:24:38.091Z,81.78
2019-01-21T04:25:41.240Z,81.72
2019-01-21T04:26:45.300Z,81.73
2019-01-21T04:27:49.285Z,81.74
2019-01-21T04:28:53.403Z,81.65
2019-01-21T04:29:57.537Z,81.50
2019-01-21T04:31:01.624Z,81.59
2019-01-21T04:32:05.788Z,81.70
2019-01-21T04:33:09.960Z,81.65
2019-01-21T04:34:14.041Z,81.58
2019-01-21T04:35:18.167Z,81.60
2019-01-21T04:36:22.185Z,81.37
2019-01-21T04:37:26.330Z,81.51
2019-01-21T04:38:30.494Z,81.42
2019-01-21T04:39:34.507Z,81.40
2019-01-21T04:40:38.678Z,81.43
2019-01-21T04:41:42.780Z,81.52
2019-01-21T04:42:47.023Z,81.53
2019-01-21T04:43:51.033Z,81.58
2019-01-21T04:44:56.031Z,81.50
2019-01-21T04:45:59.741Z,81.49
2019-01-21T04:47:03.756Z,81.51
2019-01-21T04:48:07.887Z,81.50
2019-01-21T04:49:11.991Z,81.50
2019-01-21T04:50:16.071Z,81.46
2019-01-21T04:51:20.158Z,81.52
2019-01-21T04:52:24.298Z,81.54
2019-01-21T04:53:28.403Z,81.50
2019-01-21T04:54:32.516Z,81.45
2019-01-21T04:55:36.572Z,81.40
2019-01-21T04:56:40.757Z,81.45
2019-01-21T04:57:44.801Z,81.50
2019-01-21T04:58:48.911Z,81.53
2019-01-21T04:59:53.006Z,81.37
2019-01-21T05:00:57.174Z,81.54
2019-01-21T05:02:04.085Z,81.67
2019-01-21T05:03:07.171Z,81.69
2019-01-21T05:04:11.187Z,81.72
2019-01-21T05:05:15.321Z,81.54
2019-01-21T05:06:19.342Z,81.58
2019-01-21T05:07:23.322Z,81.50
2019-01-21T05:08:27.522Z,81.54
2019-01-21T05:09:31.476Z,81.48
2019-01-21T05:10:36.418Z,81.58
2019-01-21T05:11:40.069Z,81.59
2019-01-21T05:12:44.201Z,81.58
2019-01-21T05:13:48.220Z,81.57
2019-01-21T05:14:53.156Z,81.61
2019-01-21T05:15:56.897Z,81.60
2019-01-21T05:17:00.840Z,81.46
2019-01-21T05:18:05.010Z,81.42
2019-01-21T05:19:09.030Z,81.27
2019-01-21T05:20:13.943Z,81.40
2019-01-21T05:21:17.620Z,81.49
2019-01-21T05:22:21.766Z,81.51
2019-01-21T05:23:25.751Z,81.47
2019-01-21T05:24:29.827Z,81.47
2019-01-21T05:25:33.876Z,81.47
2019-01-21T05:26:38.039Z,81.54
2019-01-21T05:27:42.153Z,81.28
2019-01-21T05:28:46.319Z,81.32
2019-01-21T05:29:50.370Z,81.37
2019-01-21T05:30:54.787Z,81.29
2019-01-21T05:31:58.720Z,81.19
2019-01-21T05:33:03.608Z,81.27
2019-01-21T05:34:07.253Z,81.39
2019-01-21T05:35:11.417Z,81.47
2019-01-21T05:36:15.447Z,81.52
2019-01-21T05:37:19.456Z,81.47
2019-01-21T05:38:23.487Z,81.51
2019-01-21T05:39:27.669Z,81.57
2019-01-21T05:40:31.739Z,81.53
2019-01-21T05:41:35.759Z,81.28
2019-01-21T05:42:40.721Z,81.28
2019-01-21T05:43:44.381Z,81.27
2019-01-21T05:44:48.547Z,81.17
2019-01-21T05:45:52.531Z,81.19
2019-01-21T05:46:56.604Z,81.26
2019-01-21T05:48:00.645Z,81.32
2019-01-21T05:49:04.792Z,81.42
2019-01-21T05:50:08.904Z,81.37
2019-01-21T05:51:12.995Z,81.37
2019-01-21T05:52:16.957Z,81.40
2019-01-21T05:53:21.074Z,81.25
2019-01-21T05:54:25.134Z,81.28
2019-01-21T05:55:29.190Z,81.05
2019-01-21T05:56:33.302Z,81.02
2019-01-21T05:57:40.263Z,80.99
2019-01-21T05:58:43.421Z,81.03
2019-01-21T05:59:47.510Z,81.25
2019-01-21T06:00:51.468Z,81.31
2019-01-21T06:01:55.524Z,81.03
2019-01-21T06:02:59.571Z,81.27
2019-01-21T06:04:03.633Z,81.39
2019-01-21T06:05:07.678Z,81.33
2019-01-21T06:06:11.722Z,81.41
2019-01-21T06:07:15.791Z,81.51
2019-01-21T06:08:19.843Z,81.51
2019-01-21T06:09:23.870Z,81.55
2019-01-21T06:10:27.929Z,81.47
2019-01-21T06:11:31.992Z,81.07
2019-01-21T06:12:36.067Z,81.20
2019-01-21T06:13:40.242Z,81.13
2019-01-21T06:14:44.300Z,81.24
2019-01-21T06:15:48.377Z,81.20
2019-01-21T06:16:52.352Z,81.09
2019-01-21T06:17:56.520Z,81.28
2019-01-21T06:19:00.628Z,81.26
2019-01-21T06:20:04.642Z,81.27
2019-01-21T06:21:08.721Z,81.05
2019-01-21T06:22:12.861Z,81.24
2019-01-21T06:23:16.827Z,81.32
2019-01-21T06:24:20.887Z,81.36
2019-01-21T06:25:25.058Z,81.35
2019-01-21T06:26:29.208Z,81.37
2019-01-21T06:27:33.165Z,81.20
2019-01-21T06:28:37.329Z,81.19
2019-01-21T06:29:41.384Z,81.24
2019-01-21T06:30:45.399Z,81.14
2019-01-21T06:31:49.537Z,81.26
2019-01-21T06:32:53.619Z,81.29
2019-01-21T06:33:57.616Z,81.08
2019-01-21T06:35:01.650Z,81.06
2019-01-21T06:36:05.704Z,81.17
2019-01-21T06:37:09.749Z,81.25
2019-01-21T06:38:13.816Z,81.33
2019-01-21T06:39:17.955Z,81.34
2019-01-21T06:40:21.915Z,81.28
2019-01-21T06:41:26.042Z,81.48
2019-01-21T06:42:30.119Z,81.32
2019-01-21T06:43:34.097Z,81.37
2019-01-21T06:44:38.268Z,81.05
2019-01-21T06:45:42.271Z,80.93
2019-01-21T06:46:46.431Z,81.06
2019-01-21T06:47:50.379Z,81.26
2019-01-21T06:48:54.458Z,81.35
2019-01-21T06:49:58.522Z,81.43
2019-01-21T06:51:02.551Z,81.29
2019-01-21T06:52:06.725Z,81.38
2019-01-21T06:53:10.695Z,81.35
2019-01-21T06:54:14.821Z,81.38
2019-01-21T06:55:18.903Z,81.42
2019-01-21T06:56:22.984Z,81.47
2019-01-21T06:57:27.124Z,81.52
2019-01-21T06:58:31.105Z,81.34
2019-01-21T06:59:35.153Z,81.35
2019-01-21T07:00:39.309Z,81.44
2019-01-21T07:01:43.399Z,81.34
2019-01-21T07:02:47.480Z,81.35
2019-01-21T07:03:51.477Z,81.38
2019-01-21T07:04:55.601Z,81.15
2019-01-21T07:05:59.648Z,81.24
2019-01-21T07:07:03.648Z,81.26
2019-01-21T07:08:07.758Z,81.13
2019-01-21T07:09:11.741Z,81.30
2019-01-21T07:10:15.919Z,81.34
2019-01-21T07:11:20.022Z,81.43
2019-01-21T07:12:24.011Z,81.52
2019-01-21T07:13:28.037Z,81.48
2019-01-21T07:14:32.077Z,81.49
2019-01-21T07:15:36.121Z,81.55
2019-01-21T07:16:40.250Z,81.51
2019-01-21T07:17:44.284Z,81.47
2019-01-21T07:18:48.311Z,81.45
2019-01-21T07:19:52.432Z,81.40
2019-01-21T07:20:56.417Z,81.04
2019-01-21T07:22:00.492Z,81.10
2019-01-21T07:23:04.608Z,81.16
2019-01-21T07:24:08.684Z,81.20
2019-01-21T07:25:12.687Z,81.25
2019-01-21T07:26:16.793Z,81.27
2019-01-21T07:27:20.833Z,81.17
2019-01-21T07:28:24.892Z,81.23
2019-01-21T07:29:28.908Z,81.32
2019-01-21T07:30:32.943Z,81.38
2019-01-21T07:31:37.077Z,81.33
2019-01-21T07:32:41.079Z,81.26
2019-01-21T07:33:45.095Z,81.05
2019-01-21T07:34:49.144Z,81.01
2019-01-21T07:35:53.287Z,81.04
2019-01-21T07:36:57.386Z,81.14
2019-01-21T07:38:01.418Z,81.29
2019-01-21T07:39:05.433Z,81.33
2019-01-21T07:40:09.490Z,81.38
2019-01-21T07:41:13.490Z,81.45
2019-01-21T07:42:17.538Z,81.45
2019-01-21T07:43:21.623Z,81.38
2019-01-21T07:44:25.714Z,81.42
2019-01-21T07:45:29.697Z,81.41
2019-01-21T07:46:33.762Z,81.39
2019-01-21T07:47:37.893Z,81.46
2019-01-21T07:48:41.892Z,81.54
2019-01-21T07:49:45.955Z,81.54
2019-01-21T07:50:50.096Z,81.57
2019-01-21T07:51:54.089Z,81.58
2019-01-21T07:52:58.240Z,81.59
2019-01-21T07:54:02.257Z,81.60
2019-01-21T07:55:06.403Z,81.57
2019-01-21T07:56:10.465Z,81.58
2019-01-21T07:57:14.479Z,81.55
2019-01-21T07:58:18.529Z,81.47
2019-01-21T07:59:22.689Z,81.50
2019-01-21T08:00:27.573Z,81.50
2019-01-21T08:01:31.297Z,81.42
2019-01-21T08:02:35.276Z,81.36
2019-01-21T08:03:39.418Z,81.40
2019-01-21T08:04:43.463Z,81.45
2019-01-21T08:05:47.458Z,81.50
2019-01-21T08:06:52.382Z,81.57
2019-01-21T08:07:56.040Z,81.57
2019-01-21T08:09:00.205Z,81.56
2019-01-21T08:10:04.274Z,81.61
2019-01-21T08:11:08.254Z,81.61
2019-01-21T08:12:12.253Z,81.64
2019-01-21T08:13:16.310Z,81.61
2019-01-21T08:14:20.446Z,81.60
2019-01-21T08:15:26.400Z,81.59
2019-01-21T08:16:28.970Z,81.56
2019-01-21T08:17:33.009Z,81.60
2019-01-21T08:18:37.052Z,81.63
2019-01-21T08:19:42.013Z,81.61
2019-01-21T08:20:45.655Z,81.62
2019-01-21T08:21:49.806Z,81.65
2019-01-21T08:22:53.924Z,81.66
2019-01-21T08:23:57.940Z,81.66
2019-01-21T08:25:02.069Z,81.68
2019-01-21T08:26:06.177Z,81.68
2019-01-21T08:27:10.261Z,81.65
2019-01-21T08:28:14.257Z,81.67
2019-01-21T08:29:18.347Z,81.63
2019-01-21T08:30:22.505Z,81.65
2019-01-21T08:31:26.488Z,81.68
2019-01-21T08:32:30.565Z,81.73
2019-01-21T08:33:34.720Z,81.70
2019-01-21T08:34:39.604Z,81.81
2019-01-21T08:35:43.279Z,81.83
2019-01-21T08:36:47.318Z,81.84
2019-01-21T08:37:51.444Z,81.83
2019-01-21T08:38:55.596Z,81.78
2019-01-21T08:39:59.561Z,81.85
2019-01-21T08:41:03.647Z,81.88
2019-01-21T08:42:07.711Z,81.97
2019-01-21T08:43:12.634Z,81.92
2019-01-21T08:44:16.288Z,81.92
2019-01-21T08:45:20.331Z,81.96
2019-01-21T08:46:24.382Z,81.90
2019-01-21T08:47:28.513Z,81.89
2019-01-21T08:48:32.629Z,81.85
2019-01-21T08:49:36.656Z,81.68
2019-01-21T08:50:40.736Z,81.71
2019-01-21T08:51:44.779Z,81.73
2019-01-21T08:52:48.953Z,81.75
2019-01-21T08:53:53.049Z,81.78
2019-01-21T08:54:57.043Z,81.81
2019-01-21T08:56:01.990Z,81.83
2019-01-21T08:57:05.739Z,81.83
2019-01-21T08:58:09.744Z,81.81
2019-01-21T08:59:13.903Z,81.83
2019-01-21T09:00:17.935Z,81.78
2019-01-21T09:01:21.975Z,81.76
2019-01-21T09:02:26.019Z,81.71
2019-01-21T09:03:30.057Z,81.67
2019-01-21T09:04:34.117Z,81.67
2019-01-21T09:05:38.179Z,81.58
2019-01-21T09:06:42.356Z,81.65
2019-01-21T09:07:46.342Z,81.67
2019-01-21T09:08:50.378Z,81.70
2019-01-21T09:09:54.416Z,81.73
2019-01-21T09:10:58.480Z,81.72
2019-01-21T09:12:02.649Z,81.65
2019-01-21T09:13:06.717Z,81.66
2019-01-21T09:14:10.705Z,81.63
2019-01-21T09:15:14.743Z,81.57
2019-01-21T09:16:18.901Z,81.59
2019-01-21T09:17:22.990Z,81.55
2019-01-21T09:18:27.010Z,81.49
2019-01-21T09:19:37.092Z,81.46
2019-01-21T09:20:35.117Z,81.37
2019-01-21T09:21:40.081Z,81.40
2019-01-21T09:22:44.578Z,81.44
2019-01-21T09:23:48.268Z,81.45
2019-01-21T09:24:52.308Z,81.47
2019-01-21T09:25:56.370Z,81.49
2019-01-21T09:27:00.461Z,81.43
2019-01-21T09:28:04.609Z,81.40
2019-01-21T09:29:08.635Z,81.30
2019-01-21T09:30:12.787Z,81.26
2019-01-21T09:31:17.670Z,81.15
2019-01-21T09:32:21.476Z,81.24
2019-01-21T09:33:25.597Z,81.29
2019-01-21T09:34:29.689Z,81.29
2019-01-21T09:35:33.764Z,81.32
2019-01-21T09:36:38.731Z,81.38
2019-01-21T09:37:43.316Z,81.42
2019-01-21T09:38:47.264Z,81.39
2019-01-21T09:39:51.918Z,81.28
2019-01-21T09:40:55.694Z,81.33
2019-01-21T09:41:59.671Z,81.30
2019-01-21T09:43:03.817Z,81.26
2019-01-21T09:44:07.839Z,81.25
2019-01-21T09:45:11.899Z,81.30
2019-01-21T09:46:15.944Z,81.15
2019-01-21T09:47:20.044Z,81.18
2019-01-21T09:48:24.093Z,81.14
2019-01-21T09:49:28.213Z,81.28
2019-01-21T09:50:32.202Z,81.18
2019-01-21T09:51:36.332Z,81.11
2019-01-21T09:52:40.442Z,81.07
2019-01-21T09:53:44.527Z,81.17
2019-01-21T09:54:48.556Z,81.18
2019-01-21T09:55:52.620Z,81.16
2019-01-21T09:56:57.526Z,81.09
2019-01-21T09:58:02.124Z,81.11
2019-01-21T09:59:05.864Z,80.97
2019-01-21T10:00:09.854Z,81.05
2019-01-21T10:01:14.826Z,81.01
2019-01-21T10:02:18.478Z,81.00
2019-01-21T10:03:22.536Z,80.66
2019-01-21T10:04:27.518Z,80.75
2019-01-21T10:05:31.166Z,80.60
2019-01-21T10:06:35.234Z,80.69
2019-01-21T10:07:39.319Z,80.87
2019-01-21T10:08:43.372Z,80.98
2019-01-21T10:09:47.458Z,81.01
2019-01-21T10:10:51.510Z,80.81
2019-01-21T10:11:55.661Z,80.94
2019-01-21T10:12:59.806Z,80.92
2019-01-21T10:14:03.804Z,80.80
2019-01-21T10:15:07.979Z,80.72
2019-01-21T10:16:11.979Z,80.62
2019-01-21T10:17:16.147Z,80.38
2019-01-21T10:18:20.271Z,80.46
2019-01-21T10:19:24.331Z,80.47
2019-01-21T10:20:28.447Z,80.69
2019-01-21T10:21:32.452Z,80.77
2019-01-21T10:22:36.481Z,80.66
2019-01-21T10:23:40.671Z,80.55
2019-01-21T10:24:45.587Z,80.69
2019-01-21T10:25:49.313Z,80.55
2019-01-21T10:26:54.196Z,80.42
2019-01-21T10:27:57.986Z,80.53
2019-01-21T10:29:02.142Z,80.47
2019-01-21T10:30:06.160Z,80.34
2019-01-21T10:31:10.330Z,80.38
2019-01-21T10:32:14.402Z,80.47
2019-01-21T10:33:18.426Z,80.28
2019-01-21T10:34:23.737Z,80.38
2019-01-21T10:35:26.565Z,80.43
2019-01-21T10:36:30.655Z,80.40
2019-01-21T10:37:34.714Z,80.31
2019-01-21T10:38:38.889Z,80.37
2019-01-21T10:39:42.962Z,80.31
2019-01-21T10:40:47.019Z,80.36
2019-01-21T10:41:51.987Z,80.16
2019-01-21T10:42:55.664Z,80.14
2019-01-21T10:43:59.739Z,80.12
2019-01-21T10:45:03.970Z,80.12
2019-01-21T10:46:08.859Z,80.18
2019-01-21T10:47:12.565Z,80.12
2019-01-21T10:48:16.726Z,80.23
2019-01-21T10:49:20.879Z,80.24
2019-01-21T10:50:25.812Z,80.13
2019-01-21T10:51:29.507Z,79.90
2019-01-21T10:52:33.700Z,79.82
2019-01-21T10:53:37.738Z,79.84
2019-01-21T10:54:41.886Z,79.87
2019-01-21T10:55:46.816Z,79.83
2019-01-21T10:56:50.460Z,79.30
2019-01-21T10:57:54.620Z,79.59
2019-01-21T10:58:58.747Z,79.73
2019-01-21T11:00:02.929Z,79.66
2019-01-21T11:01:06.929Z,79.44
2019-01-21T11:02:11.019Z,79.35
2019-01-21T11:03:15.089Z,79.70
2019-01-21T11:04:19.248Z,79.69
2019-01-21T11:05:23.308Z,79.52
2019-01-21T11:06:27.471Z,79.66
2019-01-21T11:07:31.490Z,79.25
2019-01-21T11:08:35.671Z,79.34
2019-01-21T11:09:39.735Z,79.36
2019-01-21T11:10:43.825Z,79.11
2019-01-21T11:11:53.821Z,78.97
2019-01-21T11:12:51.987Z,79.24
2019-01-21T11:13:56.067Z,79.21
2019-01-21T11:15:00.192Z,79.43
2019-01-21T11:16:04.329Z,79.17
2019-01-21T11:17:08.456Z,79.06
2019-01-21T11:18:12.449Z,79.24
2019-01-21T11:19:16.577Z,79.31
2019-01-21T11:20:20.634Z,79.52
2019-01-21T11:21:24.741Z,79.58
2019-01-21T11:22:28.834Z,79.32
2019-01-21T11:23:32.994Z,79.41
2019-01-21T11:24:37.036Z,78.92
2019-01-21T11:25:41.207Z,79.18
2019-01-21T11:26:45.318Z,78.85
2019-01-21T11:27:49.364Z,78.37
2019-01-21T11:28:53.452Z,78.76
2019-01-21T11:29:57.493Z,78.69
2019-01-21T11:31:01.791Z,78.75
2019-01-21T11:32:05.746Z,78.92
2019-01-21T11:33:09.839Z,79.03
2019-01-21T11:34:13.972Z,79.08
2019-01-21T11:35:18.076Z,78.98
2019-01-21T11:36:22.221Z,78.99
2019-01-21T11:37:26.278Z,79.08
2019-01-21T11:38:30.375Z,78.80
2019-01-21T11:39:34.491Z,79.00
2019-01-21T11:40:38.542Z,78.96
2019-01-21T11:41:42.657Z,78.91
2019-01-21T11:42:46.732Z,79.21
2019-01-21T11:43:50.794Z,79.07
2019-01-21T11:44:54.863Z,79.30
2019-01-21T11:45:58.930Z,79.49
2019-01-21T11:47:03.058Z,79.49
2019-01-21T11:48:07.104Z,79.74
2019-01-21T11:49:11.206Z,79.79
2019-01-21T11:50:15.387Z,80.03
2019-01-21T11:51:19.437Z,80.01
2019-01-21T11:52:23.490Z,80.06
2019-01-21T11:53:27.564Z,80.03
2019-01-21T11:54:31.625Z,80.18
2019-01-21T11:55:35.722Z,80.28
2019-01-21T11:56:39.908Z,80.41
2019-01-21T11:57:43.909Z,80.44
2019-01-21T11:58:48.059Z,80.42
2019-01-21T11:59:52.072Z,80.43
2019-01-21T12:00:56.258Z,80.63
2019-01-21T12:02:00.410Z,80.67
2019-01-21T12:03:04.432Z,80.89
2019-01-21T12:04:08.534Z,80.86
2019-01-21T12:05:12.675Z,80.94
2019-01-21T12:06:16.794Z,81.04
2019-01-21T12:07:20.927Z,81.25
2019-01-21T12:08:24.935Z,81.47
2019-01-21T12:09:29.017Z,81.60
2019-01-21T12:10:33.096Z,82.12
2019-01-21T12:11:37.244Z,82.23
2019-01-21T12:12:41.309Z,81.94
2019-01-21T12:13:45.500Z,81.87
2019-01-21T12:14:49.609Z,82.01
2019-01-21T12:15:53.658Z,82.10
2019-01-21T12:16:57.755Z,82.10
2019-01-21T12:18:01.948Z,82.07
2019-01-21T12:19:05.940Z,81.88
2019-01-21T12:20:10.079Z,81.98
2019-01-21T12:21:14.234Z,82.15
2019-01-21T12:22:18.254Z,82.15
2019-01-21T12:23:22.371Z,82.28
2019-01-21T12:24:26.422Z,82.23
2019-01-21T12:25:30.607Z,82.28
2019-01-21T12:26:34.627Z,82.29
2019-01-21T12:27:38.738Z,82.21
2019-01-21T12:28:42.879Z,82.10
2019-01-21T12:29:46.952Z,82.17
2019-01-21T12:30:51.905Z,82.05
2019-01-21T12:31:55.671Z,82.10
2019-01-21T12:32:59.691Z,82.19
2019-01-21T12:34:04.664Z,82.16
2019-01-21T12:35:08.439Z,82.07
2019-01-21T12:36:12.461Z,82.00
2019-01-21T12:37:17.431Z,81.97
2019-01-21T12:38:21.199Z,81.96
2019-01-21T12:39:25.294Z,81.94
2019-01-21T12:40:29.373Z,82.00
2019-01-21T12:41:33.510Z,82.07
2019-01-21T12:42:37.642Z,82.01
2019-01-21T12:43:41.679Z,81.98
2019-01-21T12:44:45.790Z,82.01
2019-01-21T12:45:49.853Z,81.96
2019-01-21T12:46:53.917Z,81.96
2019-01-21T12:47:58.107Z,81.97
2019-01-21T12:49:02.167Z,82.00
2019-01-21T12:50:06.228Z,81.97
2019-01-21T12:51:10.293Z,82.03
2019-01-21T12:52:14.417Z,82.00
2019-01-21T12:53:18.492Z,82.00
2019-01-21T12:54:22.541Z,82.02
2019-01-21T12:55:26.779Z,82.06
2019-01-21T12:56:30.804Z,82.12
2019-01-21T12:57:34.915Z,82.11
2019-01-21T12:58:38.959Z,82.14
2019-01-21T12:59:43.054Z,82.14
2019-01-21T13:00:47.196Z,82.01
2019-01-21T13:01:51.212Z,82.09
2019-01-21T13:02:55.264Z,82.11
2019-01-21T13:03:59.364Z,82.01
2019-01-21T13:05:03.418Z,82.13
2019-01-21T13:06:07.451Z,82.19
2019-01-21T13:07:11.628Z,82.29
2019-01-21T13:08:15.642Z,82.25
2019-01-21T13:09:19.846Z,82.30
2019-01-21T13:10:23.891Z,82.32
2019-01-21T13:11:27.925Z,82.28
2019-01-21T13:12:32.127Z,82.21
2019-01-21T13:13:36.244Z,82.19
2019-01-21T13:14:40.328Z,82.09
2019-01-21T13:15:44.358Z,82.02
2019-01-21T13:16:48.454Z,82.02
2019-01-21T13:17:52.603Z,81.91
2019-01-21T13:18:56.661Z,82.01
2019-01-21T13:20:00.754Z,81.99
2019-01-21T13:21:04.909Z,81.89
2019-01-21T13:22:08.925Z,81.76
2019-01-21T13:23:13.108Z,81.75
2019-01-21T13:24:17.144Z,81.72
2019-01-21T13:25:21.311Z,81.72
2019-01-21T13:26:25.358Z,81.64
2019-01-21T13:27:29.568Z,81.54
2019-01-21T13:28:33.694Z,81.50
2019-01-21T13:29:37.748Z,81.54
2019-01-21T13:30:41.797Z,81.59
2019-01-21T13:31:45.876Z,81.77
2019-01-21T13:32:50.050Z,81.79
2019-01-21T13:33:54.155Z,81.76
2019-01-21T13:34:58.219Z,81.75
2019-01-21T13:36:03.225Z,81.74
2019-01-21T13:37:06.992Z,81.57
2019-01-21T13:38:11.117Z,81.57
2019-01-21T13:39:15.146Z,81.57
2019-01-21T13:40:19.338Z,81.58
2019-01-21T13:41:26.340Z,81.50
2019-01-21T13:42:29.459Z,81.47
2019-01-21T13:43:33.653Z,81.54
2019-01-21T13:44:37.694Z,81.53
2019-01-21T13:45:41.776Z,81.47